sensor_id;sensor_type;location;lat;lon;timestamp;P1;durP1;ratioP1;P2;durP2;ratioP2
22034;SDS011;11181;51.002;4.356;2022-12-07T00:01:25;11.10;;;7.60;;
22034;SDS011;11181;51.002;4.356;2022-12-07T00:03:55;11.40;;;8.60;;
22034;SDS011;11181;51.002;4.356;2022-12-07T00:06:29;12.23;;;7.90;;
22034;SDS011;11181;51.002;4.356;2022-12-07T00:08:56;12.47;;;8.30;;
22034;SDS011;11181;51.002;4.356;2022-12-07T00:11:23;15.60;;;9.23;;
22034;SDS011;11181;51.002;4.356;2022-12-07T00:13:51;11.27;;;7.90;;
22034;SDS011;11181;51.002;4.356;2022-12-07T00:16:19;10.10;;;7.27;;
22034;SDS011;11181;51.002;4.356;2022-12-07T00:18:47;13.57;;;7.77;;
22034;SDS011;11181;51.002;4.356;2022-12-07T00:21:16;11.97;;;7.97;;
22034;SDS011;11181;51.002;4.356;2022-12-07T00:23:46;9.30;;;7.70;;
22034;SDS011;11181;51.002;4.356;2022-12-07T00:26:15;10.60;;;7.93;;
22034;SDS011;11181;51.002;4.356;2022-12-07T00:28:44;11.67;;;7.33;;
22034;SDS011;11181;51.002;4.356;2022-12-07T00:31:12;10.43;;;7.43;;
22034;SDS011;11181;51.002;4.356;2022-12-07T00:33:40;12.63;;;8.67;;
22034;SDS011;11181;51.002;4.356;2022-12-07T00:36:09;11.90;;;7.83;;
22034;SDS011;11181;51.002;4.356;2022-12-07T00:38:38;12.37;;;7.53;;
22034;SDS011;11181;51.002;4.356;2022-12-07T00:41:06;9.87;;;7.57;;
22034;SDS011;11181;51.002;4.356;2022-12-07T00:43:36;15.50;;;8.20;;
22034;SDS011;11181;51.002;4.356;2022-12-07T00:46:03;11.37;;;7.90;;
22034;SDS011;11181;51.002;4.356;2022-12-07T00:48:30;10.07;;;7.10;;
22034;SDS011;11181;51.002;4.356;2022-12-07T00:50:58;9.53;;;6.90;;
22034;SDS011;11181;51.002;4.356;2022-12-07T00:53:25;18.03;;;7.57;;
22034;SDS011;11181;51.002;4.356;2022-12-07T00:55:53;9.83;;;7.17;;
22034;SDS011;11181;51.002;4.356;2022-12-07T00:58:21;14.13;;;7.37;;
22034;SDS011;11181;51.002;4.356;2022-12-07T01:00:49;10.87;;;7.27;;
22034;SDS011;11181;51.002;4.356;2022-12-07T01:03:16;11.87;;;6.77;;
22034;SDS011;11181;51.002;4.356;2022-12-07T01:05:50;11.37;;;7.90;;
22034;SDS011;11181;51.002;4.356;2022-12-07T01:08:17;14.27;;;7.93;;
22034;SDS011;11181;51.002;4.356;2022-12-07T01:10:45;10.13;;;6.70;;
22034;SDS011;11181;51.002;4.356;2022-12-07T01:13:13;15.03;;;6.47;;
22034;SDS011;11181;51.002;4.356;2022-12-07T01:15:40;8.57;;;6.90;;
22034;SDS011;11181;51.002;4.356;2022-12-07T01:18:08;12.77;;;6.87;;
22034;SDS011;11181;51.002;4.356;2022-12-07T01:20:35;8.70;;;5.80;;
22034;SDS011;11181;51.002;4.356;2022-12-07T01:23:02;8.80;;;6.57;;
22034;SDS011;11181;51.002;4.356;2022-12-07T01:25:29;12.70;;;7.03;;
22034;SDS011;11181;51.002;4.356;2022-12-07T01:27:56;12.20;;;8.00;;
22034;SDS011;11181;51.002;4.356;2022-12-07T01:30:24;11.67;;;7.33;;
22034;SDS011;11181;51.002;4.356;2022-12-07T01:32:51;9.50;;;7.27;;
22034;SDS011;11181;51.002;4.356;2022-12-07T01:35:18;12.00;;;7.70;;
22034;SDS011;11181;51.002;4.356;2022-12-07T01:37:45;10.80;;;7.70;;
22034;SDS011;11181;51.002;4.356;2022-12-07T01:40:12;11.87;;;8.20;;
22034;SDS011;11181;51.002;4.356;2022-12-07T01:42:39;10.40;;;7.40;;
22034;SDS011;11181;51.002;4.356;2022-12-07T01:48:11;9.33;;;6.83;;
22034;SDS011;11181;51.002;4.356;2022-12-07T01:50:41;9.00;;;6.50;;
22034;SDS011;11181;51.002;4.356;2022-12-07T01:53:10;11.07;;;6.70;;
22034;SDS011;11181;51.002;4.356;2022-12-07T01:55:38;8.47;;;7.07;;
22034;SDS011;11181;51.002;4.356;2022-12-07T01:58:08;9.60;;;6.43;;
22034;SDS011;11181;51.002;4.356;2022-12-07T02:00:37;9.03;;;6.50;;
22034;SDS011;11181;51.002;4.356;2022-12-07T02:03:05;8.90;;;6.50;;
22034;SDS011;11181;51.002;4.356;2022-12-07T02:05:38;9.73;;;7.07;;
22034;SDS011;11181;51.002;4.356;2022-12-07T02:08:07;9.77;;;7.20;;
22034;SDS011;11181;51.002;4.356;2022-12-07T02:10:35;9.67;;;6.17;;
22034;SDS011;11181;51.002;4.356;2022-12-07T02:13:03;9.83;;;6.90;;
22034;SDS011;11181;51.002;4.356;2022-12-07T02:15:34;14.80;;;7.13;;
22034;SDS011;11181;51.002;4.356;2022-12-07T02:18:14;10.17;;;6.10;;
22034;SDS011;11181;51.002;4.356;2022-12-07T02:20:50;11.53;;;6.53;;
22034;SDS011;11181;51.002;4.356;2022-12-07T02:23:38;8.33;;;6.50;;
22034;SDS011;11181;51.002;4.356;2022-12-07T02:29:14;11.17;;;6.43;;
22034;SDS011;11181;51.002;4.356;2022-12-07T02:31:50;10.03;;;5.87;;
22034;SDS011;11181;51.002;4.356;2022-12-07T02:34:25;7.23;;;5.57;;
22034;SDS011;11181;51.002;4.356;2022-12-07T02:36:57;9.07;;;5.53;;
22034;SDS011;11181;51.002;4.356;2022-12-07T02:39:31;9.60;;;5.27;;
22034;SDS011;11181;51.002;4.356;2022-12-07T02:42:06;8.27;;;5.93;;
22034;SDS011;11181;51.002;4.356;2022-12-07T02:44:37;9.23;;;6.30;;
22034;SDS011;11181;51.002;4.356;2022-12-07T02:47:07;7.73;;;5.47;;
22034;SDS011;11181;51.002;4.356;2022-12-07T02:49:38;6.87;;;5.30;;
22034;SDS011;11181;51.002;4.356;2022-12-07T02:52:06;9.37;;;5.50;;
22034;SDS011;11181;51.002;4.356;2022-12-07T02:54:33;6.50;;;5.43;;
22034;SDS011;11181;51.002;4.356;2022-12-07T02:57:00;9.07;;;5.00;;
22034;SDS011;11181;51.002;4.356;2022-12-07T02:59:42;9.47;;;5.40;;
22034;SDS011;11181;51.002;4.356;2022-12-07T03:02:17;7.73;;;4.97;;
22034;SDS011;11181;51.002;4.356;2022-12-07T03:04:52;6.37;;;4.90;;
22034;SDS011;11181;51.002;4.356;2022-12-07T03:07:27;5.90;;;4.93;;
22034;SDS011;11181;51.002;4.356;2022-12-07T03:10:00;7.57;;;5.20;;
22034;SDS011;11181;51.002;4.356;2022-12-07T03:12:31;7.67;;;4.70;;
22034;SDS011;11181;51.002;4.356;2022-12-07T03:15:04;8.43;;;5.37;;
22034;SDS011;11181;51.002;4.356;2022-12-07T03:17:36;9.67;;;4.60;;
22034;SDS011;11181;51.002;4.356;2022-12-07T03:20:07;8.67;;;4.77;;
22034;SDS011;11181;51.002;4.356;2022-12-07T03:22:37;7.30;;;4.67;;
22034;SDS011;11181;51.002;4.356;2022-12-07T03:25:09;6.07;;;4.03;;
22034;SDS011;11181;51.002;4.356;2022-12-07T03:27:41;8.13;;;4.17;;
22034;SDS011;11181;51.002;4.356;2022-12-07T03:30:14;7.53;;;3.93;;
22034;SDS011;11181;51.002;4.356;2022-12-07T03:32:44;6.73;;;3.83;;
22034;SDS011;11181;51.002;4.356;2022-12-07T03:35:16;6.17;;;4.53;;
22034;SDS011;11181;51.002;4.356;2022-12-07T03:37:47;7.57;;;4.53;;
22034;SDS011;11181;51.002;4.356;2022-12-07T03:40:19;5.53;;;4.13;;
22034;SDS011;11181;51.002;4.356;2022-12-07T03:42:51;7.43;;;3.57;;
22034;SDS011;11181;51.002;4.356;2022-12-07T03:45:21;8.23;;;4.23;;
22034;SDS011;11181;51.002;4.356;2022-12-07T03:47:54;8.00;;;4.37;;
22034;SDS011;11181;51.002;4.356;2022-12-07T03:50:30;7.30;;;4.37;;
22034;SDS011;11181;51.002;4.356;2022-12-07T03:53:05;8.50;;;4.10;;
22034;SDS011;11181;51.002;4.356;2022-12-07T03:55:37;6.77;;;4.53;;
22034;SDS011;11181;51.002;4.356;2022-12-07T03:58:10;7.20;;;4.20;;
22034;SDS011;11181;51.002;4.356;2022-12-07T04:00:41;9.07;;;4.03;;
22034;SDS011;11181;51.002;4.356;2022-12-07T04:03:09;6.13;;;4.40;;
22034;SDS011;11181;51.002;4.356;2022-12-07T04:05:36;4.23;;;3.50;;
22034;SDS011;11181;51.002;4.356;2022-12-07T04:08:04;8.63;;;3.90;;
22034;SDS011;11181;51.002;4.356;2022-12-07T04:10:31;5.50;;;3.73;;
22034;SDS011;11181;51.002;4.356;2022-12-07T04:12:58;4.40;;;3.60;;
22034;SDS011;11181;51.002;4.356;2022-12-07T04:15:25;5.73;;;4.00;;
22034;SDS011;11181;51.002;4.356;2022-12-07T04:17:53;5.17;;;3.50;;
22034;SDS011;11181;51.002;4.356;2022-12-07T04:20:21;5.17;;;3.90;;
22034;SDS011;11181;51.002;4.356;2022-12-07T04:22:47;5.37;;;4.10;;
22034;SDS011;11181;51.002;4.356;2022-12-07T04:25:14;4.40;;;3.80;;
22034;SDS011;11181;51.002;4.356;2022-12-07T04:27:41;6.80;;;3.80;;
22034;SDS011;11181;51.002;4.356;2022-12-07T04:30:09;7.30;;;4.40;;
22034;SDS011;11181;51.002;4.356;2022-12-07T04:32:36;5.57;;;4.10;;
22034;SDS011;11181;51.002;4.356;2022-12-07T04:35:05;10.07;;;4.30;;
22034;SDS011;11181;51.002;4.356;2022-12-07T04:37:32;5.23;;;3.67;;
22034;SDS011;11181;51.002;4.356;2022-12-07T04:39:59;5.33;;;4.07;;
22034;SDS011;11181;51.002;4.356;2022-12-07T04:42:26;8.90;;;4.20;;
22034;SDS011;11181;51.002;4.356;2022-12-07T04:44:53;6.17;;;3.43;;
22034;SDS011;11181;51.002;4.356;2022-12-07T04:47:20;9.47;;;3.80;;
22034;SDS011;11181;51.002;4.356;2022-12-07T04:49:47;5.07;;;3.50;;
22034;SDS011;11181;51.002;4.356;2022-12-07T04:52:15;6.43;;;4.37;;
22034;SDS011;11181;51.002;4.356;2022-12-07T04:54:42;6.27;;;4.57;;
22034;SDS011;11181;51.002;4.356;2022-12-07T04:57:09;7.70;;;4.30;;
22034;SDS011;11181;51.002;4.356;2022-12-07T04:59:36;5.27;;;3.77;;
22034;SDS011;11181;51.002;4.356;2022-12-07T05:02:02;6.20;;;4.13;;
22034;SDS011;11181;51.002;4.356;2022-12-07T05:04:29;9.57;;;5.30;;
22034;SDS011;11181;51.002;4.356;2022-12-07T05:06:56;5.83;;;3.53;;
22034;SDS011;11181;51.002;4.356;2022-12-07T05:09:25;7.33;;;4.60;;
22034;SDS011;11181;51.002;4.356;2022-12-07T05:11:51;8.17;;;3.83;;
22034;SDS011;11181;51.002;4.356;2022-12-07T05:14:19;7.33;;;4.23;;
22034;SDS011;11181;51.002;4.356;2022-12-07T05:16:48;6.23;;;4.23;;
22034;SDS011;11181;51.002;4.356;2022-12-07T05:19:16;7.90;;;4.50;;
22034;SDS011;11181;51.002;4.356;2022-12-07T05:21:44;6.63;;;4.07;;
22034;SDS011;11181;51.002;4.356;2022-12-07T05:24:12;7.50;;;4.70;;
22034;SDS011;11181;51.002;4.356;2022-12-07T05:26:41;4.77;;;4.33;;
22034;SDS011;11181;51.002;4.356;2022-12-07T05:29:10;6.20;;;4.27;;
22034;SDS011;11181;51.002;4.356;2022-12-07T05:31:37;9.33;;;4.77;;
22034;SDS011;11181;51.002;4.356;2022-12-07T05:34:04;8.27;;;4.23;;
22034;SDS011;11181;51.002;4.356;2022-12-07T05:36:31;5.70;;;4.00;;
22034;SDS011;11181;51.002;4.356;2022-12-07T05:38:58;6.23;;;3.80;;
22034;SDS011;11181;51.002;4.356;2022-12-07T05:41:25;7.40;;;4.23;;
22034;SDS011;11181;51.002;4.356;2022-12-07T05:44:11;8.73;;;5.60;;
22034;SDS011;11181;51.002;4.356;2022-12-07T05:46:38;6.23;;;4.60;;
22034;SDS011;11181;51.002;4.356;2022-12-07T05:49:05;8.07;;;4.47;;
22034;SDS011;11181;51.002;4.356;2022-12-07T05:51:32;9.17;;;5.20;;
22034;SDS011;11181;51.002;4.356;2022-12-07T05:53:59;9.97;;;5.03;;
22034;SDS011;11181;51.002;4.356;2022-12-07T05:56:25;15.00;;;4.67;;
22034;SDS011;11181;51.002;4.356;2022-12-07T05:58:52;6.50;;;4.63;;
22034;SDS011;11181;51.002;4.356;2022-12-07T06:01:38;7.67;;;4.70;;
22034;SDS011;11181;51.002;4.356;2022-12-07T06:04:05;8.13;;;4.90;;
22034;SDS011;11181;51.002;4.356;2022-12-07T06:06:32;9.87;;;4.80;;
22034;SDS011;11181;51.002;4.356;2022-12-07T06:08:59;6.87;;;4.97;;
22034;SDS011;11181;51.002;4.356;2022-12-07T06:11:26;10.70;;;5.30;;
22034;SDS011;11181;51.002;4.356;2022-12-07T06:14:10;6.80;;;4.80;;
22034;SDS011;11181;51.002;4.356;2022-12-07T06:16:38;10.40;;;5.33;;
22034;SDS011;11181;51.002;4.356;2022-12-07T06:19:05;7.63;;;5.53;;
22034;SDS011;11181;51.002;4.356;2022-12-07T06:21:32;6.33;;;4.80;;
22034;SDS011;11181;51.002;4.356;2022-12-07T06:23:59;6.73;;;4.53;;
22034;SDS011;11181;51.002;4.356;2022-12-07T06:26:26;9.47;;;5.27;;
22034;SDS011;11181;51.002;4.356;2022-12-07T06:28:54;7.07;;;5.10;;
22034;SDS011;11181;51.002;4.356;2022-12-07T06:31:20;5.90;;;4.80;;
22034;SDS011;11181;51.002;4.356;2022-12-07T06:33:49;7.33;;;5.33;;
22034;SDS011;11181;51.002;4.356;2022-12-07T06:36:16;6.53;;;4.93;;
22034;SDS011;11181;51.002;4.356;2022-12-07T06:38:43;9.40;;;5.70;;
22034;SDS011;11181;51.002;4.356;2022-12-07T06:41:10;6.67;;;4.77;;
22034;SDS011;11181;51.002;4.356;2022-12-07T06:43:36;6.20;;;4.70;;
22034;SDS011;11181;51.002;4.356;2022-12-07T06:46:03;8.47;;;6.00;;
22034;SDS011;11181;51.002;4.356;2022-12-07T06:48:30;8.20;;;5.23;;
22034;SDS011;11181;51.002;4.356;2022-12-07T06:50:59;7.23;;;5.10;;
22034;SDS011;11181;51.002;4.356;2022-12-07T06:53:26;8.20;;;4.73;;
22034;SDS011;11181;51.002;4.356;2022-12-07T06:55:53;7.63;;;5.50;;
22034;SDS011;11181;51.002;4.356;2022-12-07T06:58:20;6.43;;;4.37;;
22034;SDS011;11181;51.002;4.356;2022-12-07T07:00:47;8.53;;;5.07;;
22034;SDS011;11181;51.002;4.356;2022-12-07T07:03:15;8.03;;;4.70;;
22034;SDS011;11181;51.002;4.356;2022-12-07T07:05:42;6.67;;;5.00;;
22034;SDS011;11181;51.002;4.356;2022-12-07T07:08:11;7.73;;;5.20;;
22034;SDS011;11181;51.002;4.356;2022-12-07T07:10:38;10.93;;;4.10;;
22034;SDS011;11181;51.002;4.356;2022-12-07T07:13:06;4.77;;;3.93;;
22034;SDS011;11181;51.002;4.356;2022-12-07T07:15:33;10.57;;;5.00;;
22034;SDS011;11181;51.002;4.356;2022-12-07T07:18:00;7.20;;;4.20;;
22034;SDS011;11181;51.002;4.356;2022-12-07T07:20:28;6.83;;;4.63;;
22034;SDS011;11181;51.002;4.356;2022-12-07T07:22:55;9.03;;;5.20;;
22034;SDS011;11181;51.002;4.356;2022-12-07T07:25:24;6.83;;;4.67;;
22034;SDS011;11181;51.002;4.356;2022-12-07T07:27:51;7.77;;;4.67;;
22034;SDS011;11181;51.002;4.356;2022-12-07T07:30:17;9.07;;;4.33;;
22034;SDS011;11181;51.002;4.356;2022-12-07T07:32:45;7.17;;;4.53;;
22034;SDS011;11181;51.002;4.356;2022-12-07T07:35:11;7.93;;;4.13;;
22034;SDS011;11181;51.002;4.356;2022-12-07T07:37:39;6.63;;;4.40;;
22034;SDS011;11181;51.002;4.356;2022-12-07T07:40:06;6.57;;;4.47;;
22034;SDS011;11181;51.002;4.356;2022-12-07T07:42:35;9.83;;;5.37;;
22034;SDS011;11181;51.002;4.356;2022-12-07T07:45:02;7.07;;;4.43;;
22034;SDS011;11181;51.002;4.356;2022-12-07T07:47:30;10.20;;;4.43;;
22034;SDS011;11181;51.002;4.356;2022-12-07T07:49:57;7.40;;;4.20;;
22034;SDS011;11181;51.002;4.356;2022-12-07T07:52:24;10.13;;;5.03;;
22034;SDS011;11181;51.002;4.356;2022-12-07T07:54:51;9.20;;;5.43;;
22034;SDS011;11181;51.002;4.356;2022-12-07T07:57:18;10.63;;;5.07;;
22034;SDS011;11181;51.002;4.356;2022-12-07T07:59:46;10.40;;;3.83;;
22034;SDS011;11181;51.002;4.356;2022-12-07T08:02:13;7.57;;;4.90;;
22034;SDS011;11181;51.002;4.356;2022-12-07T08:04:41;5.73;;;3.97;;
22034;SDS011;11181;51.002;4.356;2022-12-07T08:07:08;7.90;;;3.87;;
22034;SDS011;11181;51.002;4.356;2022-12-07T08:09:36;6.70;;;4.30;;
22034;SDS011;11181;51.002;4.356;2022-12-07T08:12:03;6.67;;;4.70;;
22034;SDS011;11181;51.002;4.356;2022-12-07T08:14:31;8.63;;;4.50;;
22034;SDS011;11181;51.002;4.356;2022-12-07T08:17:00;5.20;;;4.27;;
22034;SDS011;11181;51.002;4.356;2022-12-07T08:19:27;7.07;;;4.33;;
22034;SDS011;11181;51.002;4.356;2022-12-07T08:21:54;6.50;;;4.83;;
22034;SDS011;11181;51.002;4.356;2022-12-07T08:24:21;5.10;;;4.23;;
22034;SDS011;11181;51.002;4.356;2022-12-07T08:26:50;8.17;;;4.73;;
22034;SDS011;11181;51.002;4.356;2022-12-07T08:29:17;7.53;;;3.97;;
22034;SDS011;11181;51.002;4.356;2022-12-07T08:31:44;5.40;;;4.10;;
22034;SDS011;11181;51.002;4.356;2022-12-07T08:34:12;8.30;;;4.80;;
22034;SDS011;11181;51.002;4.356;2022-12-07T08:36:39;6.53;;;4.33;;
22034;SDS011;11181;51.002;4.356;2022-12-07T08:39:06;8.97;;;5.43;;
22034;SDS011;11181;51.002;4.356;2022-12-07T08:41:33;5.47;;;3.93;;
22034;SDS011;11181;51.002;4.356;2022-12-07T08:44:01;10.07;;;4.53;;
22034;SDS011;11181;51.002;4.356;2022-12-07T08:46:29;7.90;;;3.77;;
22034;SDS011;11181;51.002;4.356;2022-12-07T08:49:03;8.50;;;4.47;;
22034;SDS011;11181;51.002;4.356;2022-12-07T08:51:34;9.57;;;4.57;;
22034;SDS011;11181;51.002;4.356;2022-12-07T08:54:03;5.80;;;3.63;;
22034;SDS011;11181;51.002;4.356;2022-12-07T08:56:33;4.87;;;4.07;;
22034;SDS011;11181;51.002;4.356;2022-12-07T08:59:01;5.73;;;3.60;;
22034;SDS011;11181;51.002;4.356;2022-12-07T09:01:28;9.60;;;4.03;;
22034;SDS011;11181;51.002;4.356;2022-12-07T09:03:56;10.20;;;4.70;;
22034;SDS011;11181;51.002;4.356;2022-12-07T09:06:22;10.23;;;3.90;;
22034;SDS011;11181;51.002;4.356;2022-12-07T09:08:52;10.70;;;5.07;;
22034;SDS011;11181;51.002;4.356;2022-12-07T09:11:22;12.57;;;4.60;;
22034;SDS011;11181;51.002;4.356;2022-12-07T09:13:49;8.40;;;4.43;;
22034;SDS011;11181;51.002;4.356;2022-12-07T09:16:16;9.17;;;4.50;;
22034;SDS011;11181;51.002;4.356;2022-12-07T09:18:43;10.03;;;4.37;;
22034;SDS011;11181;51.002;4.356;2022-12-07T09:21:10;14.93;;;6.17;;
22034;SDS011;11181;51.002;4.356;2022-12-07T09:23:36;9.13;;;3.83;;
22034;SDS011;11181;51.002;4.356;2022-12-07T09:26:05;7.17;;;4.37;;
22034;SDS011;11181;51.002;4.356;2022-12-07T09:28:32;4.87;;;3.77;;
22034;SDS011;11181;51.002;4.356;2022-12-07T09:30:59;10.87;;;4.27;;
22034;SDS011;11181;51.002;4.356;2022-12-07T09:33:26;5.93;;;3.40;;
22034;SDS011;11181;51.002;4.356;2022-12-07T09:35:52;7.63;;;4.07;;
22034;SDS011;11181;51.002;4.356;2022-12-07T09:38:19;9.27;;;4.10;;
22034;SDS011;11181;51.002;4.356;2022-12-07T09:40:47;9.07;;;4.60;;
22034;SDS011;11181;51.002;4.356;2022-12-07T09:43:17;8.10;;;4.20;;
22034;SDS011;11181;51.002;4.356;2022-12-07T09:45:46;7.27;;;4.07;;
22034;SDS011;11181;51.002;4.356;2022-12-07T09:48:18;5.20;;;3.77;;
22034;SDS011;11181;51.002;4.356;2022-12-07T09:50:47;6.83;;;4.10;;
22034;SDS011;11181;51.002;4.356;2022-12-07T09:53:16;11.30;;;4.23;;
22034;SDS011;11181;51.002;4.356;2022-12-07T09:55:49;9.77;;;4.43;;
22034;SDS011;11181;51.002;4.356;2022-12-07T09:58:19;9.43;;;4.63;;
22034;SDS011;11181;51.002;4.356;2022-12-07T10:00:49;7.60;;;5.00;;
22034;SDS011;11181;51.002;4.356;2022-12-07T10:03:18;7.20;;;4.03;;
22034;SDS011;11181;51.002;4.356;2022-12-07T10:05:46;6.77;;;4.13;;
22034;SDS011;11181;51.002;4.356;2022-12-07T10:08:15;6.60;;;4.50;;
22034;SDS011;11181;51.002;4.356;2022-12-07T10:10:44;8.50;;;3.63;;
22034;SDS011;11181;51.002;4.356;2022-12-07T10:13:12;10.00;;;4.40;;
22034;SDS011;11181;51.002;4.356;2022-12-07T10:15:45;8.97;;;4.40;;
22034;SDS011;11181;51.002;4.356;2022-12-07T10:18:17;8.37;;;4.63;;
22034;SDS011;11181;51.002;4.356;2022-12-07T10:20:46;8.17;;;4.33;;
22034;SDS011;11181;51.002;4.356;2022-12-07T10:23:15;4.73;;;3.43;;
22034;SDS011;11181;51.002;4.356;2022-12-07T10:25:44;10.93;;;4.03;;
22034;SDS011;11181;51.002;4.356;2022-12-07T10:28:14;9.43;;;4.10;;
22034;SDS011;11181;51.002;4.356;2022-12-07T10:30:47;5.57;;;3.30;;
22034;SDS011;11181;51.002;4.356;2022-12-07T10:33:35;9.13;;;3.80;;
22034;SDS011;11181;51.002;4.356;2022-12-07T10:36:16;10.63;;;4.30;;
22034;SDS011;11181;51.002;4.356;2022-12-07T10:38:47;5.23;;;2.90;;
22034;SDS011;11181;51.002;4.356;2022-12-07T10:41:15;7.90;;;3.40;;
22034;SDS011;11181;51.002;4.356;2022-12-07T10:43:46;7.03;;;3.60;;
22034;SDS011;11181;51.002;4.356;2022-12-07T10:46:32;8.13;;;4.13;;
22034;SDS011;11181;51.002;4.356;2022-12-07T10:49:44;6.27;;;2.70;;
22034;SDS011;11181;51.002;4.356;2022-12-07T10:52:25;6.30;;;2.90;;
22034;SDS011;11181;51.002;4.356;2022-12-07T10:55:13;4.13;;;2.60;;
22034;SDS011;11181;51.002;4.356;2022-12-07T10:57:50;5.43;;;2.80;;
22034;SDS011;11181;51.002;4.356;2022-12-07T11:00:25;5.30;;;2.80;;
22034;SDS011;11181;51.002;4.356;2022-12-07T11:03:05;4.37;;;3.00;;
22034;SDS011;11181;51.002;4.356;2022-12-07T11:05:45;4.63;;;2.90;;
22034;SDS011;11181;51.002;4.356;2022-12-07T11:08:20;6.10;;;2.47;;
22034;SDS011;11181;51.002;4.356;2022-12-07T11:10:59;4.77;;;2.87;;
22034;SDS011;11181;51.002;4.356;2022-12-07T11:13:34;7.53;;;2.73;;
22034;SDS011;11181;51.002;4.356;2022-12-07T11:16:27;5.00;;;2.83;;
22034;SDS011;11181;51.002;4.356;2022-12-07T11:19:10;6.80;;;2.50;;
22034;SDS011;11181;51.002;4.356;2022-12-07T11:21:52;4.83;;;2.63;;
22034;SDS011;11181;51.002;4.356;2022-12-07T11:24:24;4.43;;;2.37;;
22034;SDS011;11181;51.002;4.356;2022-12-07T11:27:00;4.23;;;2.80;;
22034;SDS011;11181;51.002;4.356;2022-12-07T11:32:44;5.00;;;2.80;;
22034;SDS011;11181;51.002;4.356;2022-12-07T11:35:33;7.77;;;3.07;;
22034;SDS011;11181;51.002;4.356;2022-12-07T11:38:11;8.07;;;2.77;;
22034;SDS011;11181;51.002;4.356;2022-12-07T11:40:40;6.07;;;2.73;;
22034;SDS011;11181;51.002;4.356;2022-12-07T11:43:13;5.33;;;2.60;;
22034;SDS011;11181;51.002;4.356;2022-12-07T11:45:46;6.47;;;2.50;;
22034;SDS011;11181;51.002;4.356;2022-12-07T11:48:19;9.57;;;2.67;;
22034;SDS011;11181;51.002;4.356;2022-12-07T11:50:52;5.83;;;2.40;;
22034;SDS011;11181;51.002;4.356;2022-12-07T11:53:24;5.27;;;2.47;;
22034;SDS011;11181;51.002;4.356;2022-12-07T11:55:56;5.80;;;3.13;;
22034;SDS011;11181;51.002;4.356;2022-12-07T11:58:35;6.87;;;3.07;;
22034;SDS011;11181;51.002;4.356;2022-12-07T12:01:13;7.03;;;2.87;;
22034;SDS011;11181;51.002;4.356;2022-12-07T12:03:49;6.40;;;2.50;;
22034;SDS011;11181;51.002;4.356;2022-12-07T12:06:20;4.63;;;2.23;;
22034;SDS011;11181;51.002;4.356;2022-12-07T12:08:48;3.50;;;2.27;;
22034;SDS011;11181;51.002;4.356;2022-12-07T12:11:25;5.67;;;2.57;;
22034;SDS011;11181;51.002;4.356;2022-12-07T12:14:23;3.73;;;2.60;;
22034;SDS011;11181;51.002;4.356;2022-12-07T12:20:18;5.83;;;2.27;;
22034;SDS011;11181;51.002;4.356;2022-12-07T12:22:50;5.33;;;1.97;;
22034;SDS011;11181;51.002;4.356;2022-12-07T12:25:23;5.13;;;2.20;;
22034;SDS011;11181;51.002;4.356;2022-12-07T12:27:54;4.40;;;1.70;;
22034;SDS011;11181;51.002;4.356;2022-12-07T12:30:32;4.80;;;2.17;;
22034;SDS011;11181;51.002;4.356;2022-12-07T12:33:01;2.63;;;1.73;;
22034;SDS011;11181;51.002;4.356;2022-12-07T12:35:31;3.77;;;1.57;;
22034;SDS011;11181;51.002;4.356;2022-12-07T12:40:59;4.23;;;1.83;;
22034;SDS011;11181;51.002;4.356;2022-12-07T12:46:37;1.90;;;1.30;;
22034;SDS011;11181;51.002;4.356;2022-12-07T12:55:16;3.80;;;1.50;;
22034;SDS011;11181;51.002;4.356;2022-12-07T13:03:55;2.77;;;1.40;;
22034;SDS011;11181;51.002;4.356;2022-12-07T13:06:31;2.13;;;0.90;;
22034;SDS011;11181;51.002;4.356;2022-12-07T13:09:03;1.77;;;1.30;;
22034;SDS011;11181;51.002;4.356;2022-12-07T13:11:33;4.50;;;1.30;;
22034;SDS011;11181;51.002;4.356;2022-12-07T13:17:07;4.97;;;1.37;;
22034;SDS011;11181;51.002;4.356;2022-12-07T13:25:29;6.50;;;1.40;;
22034;SDS011;11181;51.002;4.356;2022-12-07T13:28:07;3.50;;;1.67;;
22034;SDS011;11181;51.002;4.356;2022-12-07T13:30:43;4.10;;;1.67;;
22034;SDS011;11181;51.002;4.356;2022-12-07T13:33:13;3.03;;;1.70;;
22034;SDS011;11181;51.002;4.356;2022-12-07T13:35:43;3.13;;;1.40;;
22034;SDS011;11181;51.002;4.356;2022-12-07T13:38:20;3.17;;;1.90;;
22034;SDS011;11181;51.002;4.356;2022-12-07T13:41:03;7.43;;;2.40;;
22034;SDS011;11181;51.002;4.356;2022-12-07T13:43:46;2.43;;;1.43;;
22034;SDS011;11181;51.002;4.356;2022-12-07T13:46:17;4.33;;;1.17;;
22034;SDS011;11181;51.002;4.356;2022-12-07T13:48:46;3.27;;;1.60;;
22034;SDS011;11181;51.002;4.356;2022-12-07T13:51:19;3.53;;;1.70;;
22034;SDS011;11181;51.002;4.356;2022-12-07T13:53:48;5.57;;;1.67;;
22034;SDS011;11181;51.002;4.356;2022-12-07T13:56:16;4.50;;;1.53;;
22034;SDS011;11181;51.002;4.356;2022-12-07T13:58:43;1.30;;;1.20;;
22034;SDS011;11181;51.002;4.356;2022-12-07T14:01:12;3.73;;;1.33;;
22034;SDS011;11181;51.002;4.356;2022-12-07T14:03:39;1.93;;;1.57;;
22034;SDS011;11181;51.002;4.356;2022-12-07T14:06:23;2.07;;;1.77;;
22034;SDS011;11181;51.002;4.356;2022-12-07T14:09:06;8.83;;;5.67;;
22034;SDS011;11181;51.002;4.356;2022-12-07T14:11:35;3.67;;;1.50;;
22034;SDS011;11181;51.002;4.356;2022-12-07T14:14:04;3.13;;;1.50;;
22034;SDS011;11181;51.002;4.356;2022-12-07T14:16:33;2.57;;;1.43;;
22034;SDS011;11181;51.002;4.356;2022-12-07T14:19:02;1.97;;;1.43;;
22034;SDS011;11181;51.002;4.356;2022-12-07T14:21:31;2.53;;;1.70;;
22034;SDS011;11181;51.002;4.356;2022-12-07T14:24:08;2.77;;;1.53;;
22034;SDS011;11181;51.002;4.356;2022-12-07T14:26:37;4.70;;;1.43;;
22034;SDS011;11181;51.002;4.356;2022-12-07T14:32:20;2.87;;;1.20;;
22034;SDS011;11181;51.002;4.356;2022-12-07T14:34:54;1.80;;;1.20;;
22034;SDS011;11181;51.002;4.356;2022-12-07T14:37:22;2.30;;;1.47;;
22034;SDS011;11181;51.002;4.356;2022-12-07T14:39:49;1.10;;;0.87;;
22034;SDS011;11181;51.002;4.356;2022-12-07T14:42:16;1.77;;;1.33;;
22034;SDS011;11181;51.002;4.356;2022-12-07T14:44:45;2.40;;;1.50;;
22034;SDS011;11181;51.002;4.356;2022-12-07T14:47:12;2.33;;;1.30;;
22034;SDS011;11181;51.002;4.356;2022-12-07T14:49:38;4.17;;;2.30;;
22034;SDS011;11181;51.002;4.356;2022-12-07T14:52:05;4.10;;;1.53;;
22034;SDS011;11181;51.002;4.356;2022-12-07T14:54:39;3.20;;;1.60;;
22034;SDS011;11181;51.002;4.356;2022-12-07T14:57:08;7.00;;;1.63;;
22034;SDS011;11181;51.002;4.356;2022-12-07T14:59:36;1.93;;;1.37;;
22034;SDS011;11181;51.002;4.356;2022-12-07T15:02:05;1.93;;;0.90;;
22034;SDS011;11181;51.002;4.356;2022-12-07T15:04:32;2.53;;;1.27;;
22034;SDS011;11181;51.002;4.356;2022-12-07T15:07:00;1.47;;;0.77;;
22034;SDS011;11181;51.002;4.356;2022-12-07T15:09:29;2.73;;;0.90;;
22034;SDS011;11181;51.002;4.356;2022-12-07T15:11:56;2.77;;;1.13;;
22034;SDS011;11181;51.002;4.356;2022-12-07T15:14:23;4.50;;;1.40;;
22034;SDS011;11181;51.002;4.356;2022-12-07T15:16:50;2.20;;;1.00;;
22034;SDS011;11181;51.002;4.356;2022-12-07T15:19:18;4.20;;;1.30;;
22034;SDS011;11181;51.002;4.356;2022-12-07T15:21:47;5.77;;;1.43;;
22034;SDS011;11181;51.002;4.356;2022-12-07T15:24:15;2.90;;;1.30;;
22034;SDS011;11181;51.002;4.356;2022-12-07T15:26:42;3.47;;;1.33;;
22034;SDS011;11181;51.002;4.356;2022-12-07T15:29:09;2.47;;;1.13;;
22034;SDS011;11181;51.002;4.356;2022-12-07T15:31:39;6.20;;;1.60;;
22034;SDS011;11181;51.002;4.356;2022-12-07T15:34:06;1.63;;;1.30;;
22034;SDS011;11181;51.002;4.356;2022-12-07T15:36:35;2.63;;;1.40;;
22034;SDS011;11181;51.002;4.356;2022-12-07T15:39:02;2.37;;;1.40;;
22034;SDS011;11181;51.002;4.356;2022-12-07T15:41:29;2.60;;;1.40;;
22034;SDS011;11181;51.002;4.356;2022-12-07T15:43:56;4.03;;;2.00;;
22034;SDS011;11181;51.002;4.356;2022-12-07T15:46:40;3.00;;;1.43;;